sensor_id;sensor_type;location;lat;lon;timestamp;pressure;altitude;pressure_sealevel;temperature;humidity
68077;BME280;54866;53.458;14.540;2023-01-31T00:01:15;100037.52;;;2.00;80.89
68077;BME280;54866;53.458;14.540;2023-01-31T00:03:45;100038.35;;;1.98;80.96
68077;BME280;54866;53.458;14.540;2023-01-31T00:06:18;100051.92;;;1.97;81.34
68077;BME280;54866;53.458;14.540;2023-01-31T00:08:48;100045.08;;;1.95;81.10
68077;BME280;54866;53.458;14.540;2023-01-31T00:11:19;100049.85;;;1.97;80.88
68077;BME280;54866;53.458;14.540;2023-01-31T00:13:50;100054.24;;;1.96;80.94
68077;BME280;54866;53.458;14.540;2023-01-31T00:16:20;100058.00;;;1.97;80.58
68077;BME280;54866;53.458;14.540;2023-01-31T00:18:50;100067.23;;;1.97;80.89
68077;BME280;54866;53.458;14.540;2023-01-31T00:21:22;100068.70;;;1.96;81.07
68077;BME280;54866;53.458;14.540;2023-01-31T00:23:52;100078.17;;;1.94;81.16
68077;BME280;54866;53.458;14.540;2023-01-31T00:26:24;100081.19;;;1.93;81.39
68077;BME280;54866;53.458;14.540;2023-01-31T00:28:56;100085.74;;;1.92;81.33
68077;BME280;54866;53.458;14.540;2023-01-31T00:31:27;100083.93;;;1.90;81.13
68077;BME280;54866;53.458;14.540;2023-01-31T00:33:57;100083.76;;;1.93;81.40
68077;BME280;54866;53.458;14.540;2023-01-31T00:36:29;100086.95;;;1.92;81.49
68077;BME280;54866;53.458;14.540;2023-01-31T00:39:00;100087.68;;;1.91;81.51
68077;BME280;54866;53.458;14.540;2023-01-31T00:41:31;100076.69;;;1.92;81.28
68077;BME280;54866;53.458;14.540;2023-01-31T00:44:01;100095.86;;;1.94;81.32
68077;BME280;54866;53.458;14.540;2023-01-31T00:46:30;100104.99;;;1.96;81.31
68077;BME280;54866;53.458;14.540;2023-01-31T00:49:00;100100.94;;;1.97;81.24
68077;BME280;54866;53.458;14.540;2023-01-31T00:51:29;100110.95;;;1.98;81.19
68077;BME280;54866;53.458;14.540;2023-01-31T00:53:59;100112.05;;;1.97;81.37
68077;BME280;54866;53.458;14.540;2023-01-31T00:56:28;100113.67;;;1.96;81.25
68077;BME280;54866;53.458;14.540;2023-01-31T00:58:58;100123.73;;;1.96;81.30
68077;BME280;54866;53.458;14.540;2023-01-31T01:01:28;100124.08;;;1.96;80.93
68077;BME280;54866;53.458;14.540;2023-01-31T01:03:58;100129.04;;;1.94;80.96
68077;BME280;54866;53.458;14.540;2023-01-31T01:06:28;100136.52;;;1.91;81.16
68077;BME280;54866;53.458;14.540;2023-01-31T01:08:57;100131.10;;;1.88;81.25
68077;BME280;54866;53.458;14.540;2023-01-31T01:11:28;100130.81;;;1.83;81.42
68077;BME280;54866;53.458;14.540;2023-01-31T01:14:00;100133.34;;;1.78;81.61
68077;BME280;54866;53.458;14.540;2023-01-31T01:16:33;100133.64;;;1.72;81.93
68077;BME280;54866;53.458;14.540;2023-01-31T01:19:03;100136.40;;;1.69;82.01
68077;BME280;54866;53.458;14.540;2023-01-31T01:21:33;100135.23;;;1.65;82.42
68077;BME280;54866;53.458;14.540;2023-01-31T01:24:07;100144.51;;;1.60;82.60
68077;BME280;54866;53.458;14.540;2023-01-31T01:26:40;100142.26;;;1.56;82.84
68077;BME280;54866;53.458;14.540;2023-01-31T01:29:09;100148.75;;;1.51;83.09
68077;BME280;54866;53.458;14.540;2023-01-31T01:31:39;100151.14;;;1.49;83.53
68077;BME280;54866;53.458;14.540;2023-01-31T01:34:12;100160.58;;;1.44;83.63
68077;BME280;54866;53.458;14.540;2023-01-31T01:36:42;100164.91;;;1.41;83.83
68077;BME280;54866;53.458;14.540;2023-01-31T01:39:12;100162.56;;;1.35;84.27
68077;BME280;54866;53.458;14.540;2023-01-31T01:41:42;100166.31;;;1.33;84.28
68077;BME280;54866;53.458;14.540;2023-01-31T01:44:43;100168.71;;;1.30;84.39
68077;BME280;54866;53.458;14.540;2023-01-31T01:47:17;100185.08;;;1.29;84.62
68077;BME280;54866;53.458;14.540;2023-01-31T01:49:50;100186.49;;;1.29;84.86
68077;BME280;54866;53.458;14.540;2023-01-31T01:52:21;100187.08;;;1.27;84.91
68077;BME280;54866;53.458;14.540;2023-01-31T01:54:56;100205.20;;;1.26;84.92
68077;BME280;54866;53.458;14.540;2023-01-31T01:57:29;100203.45;;;1.23;85.08
68077;BME280;54866;53.458;14.540;2023-01-31T02:00:06;100206.13;;;1.20;85.07
68077;BME280;54866;53.458;14.540;2023-01-31T02:02:37;100207.92;;;1.19;85.02
68077;BME280;54866;53.458;14.540;2023-01-31T02:05:08;100207.11;;;1.18;85.46
68077;BME280;54866;53.458;14.540;2023-01-31T02:07:38;100214.77;;;1.17;85.30
68077;BME280;54866;53.458;14.540;2023-01-31T02:10:12;100211.60;;;1.15;85.42
68077;BME280;54866;53.458;14.540;2023-01-31T02:12:43;100224.63;;;1.15;85.46
68077;BME280;54866;53.458;14.540;2023-01-31T02:15:13;100220.39;;;1.13;85.67
68077;BME280;54866;53.458;14.540;2023-01-31T02:17:42;100226.70;;;1.11;85.82
68077;BME280;54866;53.458;14.540;2023-01-31T02:20:32;100231.10;;;1.10;85.82
68077;BME280;54866;53.458;14.540;2023-01-31T02:23:33;100237.63;;;1.08;86.05
68077;BME280;54866;53.458;14.540;2023-01-31T02:26:28;100242.83;;;1.08;86.17
68077;BME280;54866;53.458;14.540;2023-01-31T02:29:19;100248.92;;;1.11;86.24
68077;BME280;54866;53.458;14.540;2023-01-31T02:35:07;100260.68;;;1.12;86.41
68077;BME280;54866;53.458;14.540;2023-01-31T02:37:44;100265.56;;;1.11;86.26
68077;BME280;54866;53.458;14.540;2023-01-31T02:40:22;100265.46;;;1.10;86.30
68077;BME280;54866;53.458;14.540;2023-01-31T02:43:01;100259.41;;;1.06;86.42
68077;BME280;54866;53.458;14.540;2023-01-31T02:45:38;100267.41;;;1.09;86.31
68077;BME280;54866;53.458;14.540;2023-01-31T02:48:16;100270.58;;;1.08;86.27
68077;BME280;54866;53.458;14.540;2023-01-31T02:50:57;100274.11;;;1.07;86.43
68077;BME280;54866;53.458;14.540;2023-01-31T02:53:30;100276.27;;;1.05;86.65
68077;BME280;54866;53.458;14.540;2023-01-31T02:56:04;100278.79;;;1.07;86.43
68077;BME280;54866;53.458;14.540;2023-01-31T02:58:52;100277.88;;;1.08;86.46
68077;BME280;54866;53.458;14.540;2023-01-31T03:01:25;100285.43;;;1.13;86.42
68077;BME280;54866;53.458;14.540;2023-01-31T03:03:58;100284.05;;;1.17;86.18
68077;BME280;54866;53.458;14.540;2023-01-31T03:06:51;100282.71;;;1.19;86.00
68077;BME280;54866;53.458;14.540;2023-01-31T03:09:33;100289.91;;;1.25;85.96
68077;BME280;54866;53.458;14.540;2023-01-31T03:12:17;100290.03;;;1.26;85.88
68077;BME280;54866;53.458;14.540;2023-01-31T03:14:54;100294.59;;;1.29;85.47
68077;BME280;54866;53.458;14.540;2023-01-31T03:17:36;100302.27;;;1.32;85.46
68077;BME280;54866;53.458;14.540;2023-01-31T03:20:15;100297.98;;;1.31;85.35
68077;BME280;54866;53.458;14.540;2023-01-31T03:22:49;100297.91;;;1.29;85.44
68077;BME280;54866;53.458;14.540;2023-01-31T03:25:22;100298.50;;;1.23;85.25
68077;BME280;54866;53.458;14.540;2023-01-31T03:27:54;100298.20;;;1.18;85.51
68077;BME280;54866;53.458;14.540;2023-01-31T03:30:29;100289.80;;;1.16;85.42
68077;BME280;54866;53.458;14.540;2023-01-31T03:33:04;100288.79;;;1.12;85.69
68077;BME280;54866;53.458;14.540;2023-01-31T03:35:35;100287.57;;;1.12;85.70
68077;BME280;54866;53.458;14.540;2023-01-31T03:38:13;100283.63;;;1.07;86.00
68077;BME280;54866;53.458;14.540;2023-01-31T03:40:49;100292.90;;;1.06;86.18
68077;BME280;54866;53.458;14.540;2023-01-31T03:43:26;100295.96;;;1.03;86.41
68077;BME280;54866;53.458;14.540;2023-01-31T03:46:02;100299.89;;;1.00;86.63
68077;BME280;54866;53.458;14.540;2023-01-31T03:48:39;100291.60;;;1.00;86.97
68077;BME280;54866;53.458;14.540;2023-01-31T03:51:14;100306.48;;;1.00;87.14
68077;BME280;54866;53.458;14.540;2023-01-31T03:53:48;100306.23;;;0.98;87.23
68077;BME280;54866;53.458;14.540;2023-01-31T03:56:23;100308.30;;;0.99;87.61
68077;BME280;54866;53.458;14.540;2023-01-31T03:58:59;100307.70;;;0.96;87.66
68077;BME280;54866;53.458;14.540;2023-01-31T04:01:34;100305.04;;;0.94;87.95
68077;BME280;54866;53.458;14.540;2023-01-31T04:04:12;100312.15;;;0.94;88.20
68077;BME280;54866;53.458;14.540;2023-01-31T04:06:43;100309.45;;;0.96;88.27
68077;BME280;54866;53.458;14.540;2023-01-31T04:09:13;100308.48;;;0.99;88.43
68077;BME280;54866;53.458;14.540;2023-01-31T04:11:42;100322.98;;;1.00;88.42
68077;BME280;54866;53.458;14.540;2023-01-31T04:14:16;100322.67;;;0.99;88.50
68077;BME280;54866;53.458;14.540;2023-01-31T04:16:45;100331.73;;;1.02;88.61
68077;BME280;54866;53.458;14.540;2023-01-31T04:19:15;100331.02;;;1.02;88.71
68077;BME280;54866;53.458;14.540;2023-01-31T04:21:44;100334.36;;;1.01;88.56
68077;BME280;54866;53.458;14.540;2023-01-31T04:24:13;100339.55;;;1.01;88.78
68077;BME280;54866;53.458;14.540;2023-01-31T04:26:43;100347.05;;;1.01;88.90
68077;BME280;54866;53.458;14.540;2023-01-31T04:29:12;100350.38;;;1.00;88.98
68077;BME280;54866;53.458;14.540;2023-01-31T04:31:41;100352.79;;;1.00;89.04
68077;BME280;54866;53.458;14.540;2023-01-31T04:34:11;100355.81;;;0.99;89.07
68077;BME280;54866;53.458;14.540;2023-01-31T04:36:40;100348.91;;;0.98;89.26
68077;BME280;54866;53.458;14.540;2023-01-31T04:39:11;100353.39;;;0.99;89.46
68077;BME280;54866;53.458;14.540;2023-01-31T04:41:42;100350.46;;;0.98;89.57
68077;BME280;54866;53.458;14.540;2023-01-31T04:44:11;100352.58;;;0.98;89.53
68077;BME280;54866;53.458;14.540;2023-01-31T04:46:40;100355.70;;;0.98;89.80
68077;BME280;54866;53.458;14.540;2023-01-31T04:49:10;100358.14;;;0.97;89.78
68077;BME280;54866;53.458;14.540;2023-01-31T04:51:40;100349.29;;;0.97;90.02
68077;BME280;54866;53.458;14.540;2023-01-31T04:54:10;100350.02;;;0.97;89.95
68077;BME280;54866;53.458;14.540;2023-01-31T04:56:39;100337.91;;;0.96;90.11
68077;BME280;54866;53.458;14.540;2023-01-31T04:59:08;100345.52;;;0.96;90.21
68077;BME280;54866;53.458;14.540;2023-01-31T05:01:37;100349.30;;;0.97;90.02
68077;BME280;54866;53.458;14.540;2023-01-31T05:04:09;100351.06;;;1.00;90.14
68077;BME280;54866;53.458;14.540;2023-01-31T05:06:39;100349.55;;;0.99;90.09
68077;BME280;54866;53.458;14.540;2023-01-31T05:09:09;100351.67;;;0.98;90.18
68077;BME280;54866;53.458;14.540;2023-01-31T05:11:39;100345.39;;;0.96;90.37
68077;BME280;54866;53.458;14.540;2023-01-31T05:14:09;100351.38;;;0.93;90.51
68077;BME280;54866;53.458;14.540;2023-01-31T05:16:38;100354.41;;;0.92;90.88
68077;BME280;54866;53.458;14.540;2023-01-31T05:19:08;100356.23;;;0.89;90.97
68077;BME280;54866;53.458;14.540;2023-01-31T05:21:37;100361.54;;;0.87;91.22
68077;BME280;54866;53.458;14.540;2023-01-31T05:24:22;100361.16;;;0.83;91.48
68077;BME280;54866;53.458;14.540;2023-01-31T05:26:52;100375.60;;;0.82;91.70
68077;BME280;54866;53.458;14.540;2023-01-31T05:29:26;100380.72;;;0.80;92.06
68077;BME280;54866;53.458;14.540;2023-01-31T05:31:57;100382.58;;;0.78;92.28
68077;BME280;54866;53.458;14.540;2023-01-31T05:34:27;100386.18;;;0.78;92.56
68077;BME280;54866;53.458;14.540;2023-01-31T05:36:59;100387.97;;;0.81;92.77
68077;BME280;54866;53.458;14.540;2023-01-31T05:39:29;100389.20;;;0.81;92.84
68077;BME280;54866;53.458;14.540;2023-01-31T05:41:59;100391.58;;;0.78;92.89
68077;BME280;54866;53.458;14.540;2023-01-31T05:44:29;100401.84;;;0.78;92.97
68077;BME280;54866;53.458;14.540;2023-01-31T05:46:59;100404.13;;;0.73;93.28
68077;BME280;54866;53.458;14.540;2023-01-31T05:49:28;100409.32;;;0.73;93.51
68077;BME280;54866;53.458;14.540;2023-01-31T05:52:00;100413.16;;;0.72;93.58
68077;BME280;54866;53.458;14.540;2023-01-31T05:54:29;100414.59;;;0.71;93.59
68077;BME280;54866;53.458;14.540;2023-01-31T05:56:59;100414.83;;;0.70;93.86
68077;BME280;54866;53.458;14.540;2023-01-31T05:59:28;100417.42;;;0.70;94.15
68077;BME280;54866;53.458;14.540;2023-01-31T06:02:00;100423.22;;;0.68;94.07
68077;BME280;54866;53.458;14.540;2023-01-31T06:04:29;100425.83;;;0.63;94.16
68077;BME280;54866;53.458;14.540;2023-01-31T06:06:59;100433.64;;;0.63;94.23
68077;BME280;54866;53.458;14.540;2023-01-31T06:09:28;100439.95;;;0.62;94.42
68077;BME280;54866;53.458;14.540;2023-01-31T06:11:58;100435.54;;;0.59;94.44
68077;BME280;54866;53.458;14.540;2023-01-31T06:14:27;100434.73;;;0.58;94.56
68077;BME280;54866;53.458;14.540;2023-01-31T06:16:56;100436.90;;;0.56;94.58
68077;BME280;54866;53.458;14.540;2023-01-31T06:19:26;100435.42;;;0.54;94.82
68077;BME280;54866;53.458;14.540;2023-01-31T06:21:55;100440.43;;;0.54;94.99
68077;BME280;54866;53.458;14.540;2023-01-31T06:24:24;100441.29;;;0.55;95.09
68077;BME280;54866;53.458;14.540;2023-01-31T06:26:54;100436.77;;;0.54;95.19
68077;BME280;54866;53.458;14.540;2023-01-31T06:29:23;100441.92;;;0.60;95.06
68077;BME280;54866;53.458;14.540;2023-01-31T06:31:52;100445.81;;;0.62;94.92
68077;BME280;54866;53.458;14.540;2023-01-31T06:34:22;100438.08;;;0.61;94.61
68077;BME280;54866;53.458;14.540;2023-01-31T06:36:51;100443.44;;;0.65;94.63
68077;BME280;54866;53.458;14.540;2023-01-31T06:39:21;100438.08;;;0.65;94.48
68077;BME280;54866;53.458;14.540;2023-01-31T06:41:50;100444.38;;;0.68;94.24
68077;BME280;54866;53.458;14.540;2023-01-31T06:44:19;100440.58;;;0.67;94.25
68077;BME280;54866;53.458;14.540;2023-01-31T06:46:48;100440.83;;;0.65;93.89
68077;BME280;54866;53.458;14.540;2023-01-31T06:49:18;100441.30;;;0.66;94.01
68077;BME280;54866;53.458;14.540;2023-01-31T06:51:47;100447.02;;;0.67;93.92
68077;BME280;54866;53.458;14.540;2023-01-31T06:54:16;100446.05;;;0.65;93.69
68077;BME280;54866;53.458;14.540;2023-01-31T06:56:46;100448.64;;;0.65;93.85
68077;BME280;54866;53.458;14.540;2023-01-31T06:59:15;100451.52;;;0.67;93.57
68077;BME280;54866;53.458;14.540;2023-01-31T07:01:45;100445.79;;;0.67;93.47
68077;BME280;54866;53.458;14.540;2023-01-31T07:04:14;100450.84;;;0.71;93.25
68077;BME280;54866;53.458;14.540;2023-01-31T07:06:43;100454.38;;;0.73;93.17
68077;BME280;54866;53.458;14.540;2023-01-31T07:09:13;100452.15;;;0.77;92.86
68077;BME280;54866;53.458;14.540;2023-01-31T07:11:42;100452.63;;;0.82;92.70
68077;BME280;54866;53.458;14.540;2023-01-31T07:14:11;100450.63;;;0.92;92.26
68077;BME280;54866;53.458;14.540;2023-01-31T07:16:41;100453.77;;;1.20;91.38
68077;BME280;54866;53.458;14.540;2023-01-31T07:19:10;100452.50;;;1.68;89.69
68077;BME280;54866;53.458;14.540;2023-01-31T07:21:39;100446.45;;;2.23;86.89
68077;BME280;54866;53.458;14.540;2023-01-31T07:24:10;100451.77;;;2.61;84.58
68077;BME280;54866;53.458;14.540;2023-01-31T07:26:39;100453.98;;;2.90;82.15
68077;BME280;54866;53.458;14.540;2023-01-31T07:29:09;100458.60;;;3.01;81.59
68077;BME280;54866;53.458;14.540;2023-01-31T07:31:39;100462.70;;;3.23;80.23
68077;BME280;54866;53.458;14.540;2023-01-31T07:34:08;100469.23;;;3.32;79.17
68077;BME280;54866;53.458;14.540;2023-01-31T07:36:38;100475.84;;;3.08;79.29
68077;BME280;54866;53.458;14.540;2023-01-31T07:39:07;100481.00;;;3.03;79.98
68077;BME280;54866;53.458;14.540;2023-01-31T07:41:36;100477.21;;;3.05;79.66
68077;BME280;54866;53.458;14.540;2023-01-31T07:44:06;100488.34;;;2.95;80.18
68077;BME280;54866;53.458;14.540;2023-01-31T07:46:35;100479.39;;;3.03;80.18
68077;BME280;54866;53.458;14.540;2023-01-31T07:49:05;100476.17;;;3.12;79.65
68077;BME280;54866;53.458;14.540;2023-01-31T07:51:34;100479.93;;;2.89;79.59
68077;BME280;54866;53.458;14.540;2023-01-31T07:54:06;100491.49;;;2.73;80.63
68077;BME280;54866;53.458;14.540;2023-01-31T07:56:35;100487.99;;;2.77;81.10
68077;BME280;54866;53.458;14.540;2023-01-31T07:59:05;100492.70;;;3.22;79.99
68077;BME280;54866;53.458;14.540;2023-01-31T08:01:34;100487.09;;;3.83;78.42
68077;BME280;54866;53.458;14.540;2023-01-31T08:04:21;100483.65;;;4.51;75.53
68077;BME280;54866;53.458;14.540;2023-01-31T08:06:53;100484.14;;;5.53;73.06
68077;BME280;54866;53.458;14.540;2023-01-31T08:09:24;100478.20;;;6.85;68.63
68077;BME280;54866;53.458;14.540;2023-01-31T08:11:53;100473.84;;;7.55;63.21
68077;BME280;54866;53.458;14.540;2023-01-31T08:14:23;100473.45;;;7.66;62.56
68077;BME280;54866;53.458;14.540;2023-01-31T08:16:53;100477.40;;;6.98;63.44
68077;BME280;54866;53.458;14.540;2023-01-31T08:19:23;100479.65;;;6.42;65.23
68077;BME280;54866;53.458;14.540;2023-01-31T08:21:53;100484.37;;;5.90;66.37
68077;BME280;54866;53.458;14.540;2023-01-31T08:24:23;100484.80;;;5.51;67.46
68077;BME280;54866;53.458;14.540;2023-01-31T08:26:52;100493.28;;;5.47;68.32
68077;BME280;54866;53.458;14.540;2023-01-31T08:29:21;100485.83;;;6.19;67.72
68077;BME280;54866;53.458;14.540;2023-01-31T08:31:51;100483.10;;;7.81;62.53
68077;BME280;54866;53.458;14.540;2023-01-31T08:34:21;100479.94;;;8.18;61.29
68077;BME280;54866;53.458;14.540;2023-01-31T08:36:50;100477.03;;;7.82;60.78
68077;BME280;54866;53.458;14.540;2023-01-31T08:39:20;100477.84;;;7.09;62.65
68077;BME280;54866;53.458;14.540;2023-01-31T08:41:49;100480.48;;;6.46;64.23
68077;BME280;54866;53.458;14.540;2023-01-31T08:44:18;100480.21;;;5.83;66.30
68077;BME280;54866;53.458;14.540;2023-01-31T08:46:48;100483.04;;;5.37;68.27
68077;BME280;54866;53.458;14.540;2023-01-31T08:49:17;100475.21;;;4.89;70.08
68077;BME280;54866;53.458;14.540;2023-01-31T08:51:47;100468.00;;;4.57;71.86
68077;BME280;54866;53.458;14.540;2023-01-31T08:54:16;100462.10;;;4.32;73.39
68077;BME280;54866;53.458;14.540;2023-01-31T08:56:46;100464.81;;;4.08;74.66
68077;BME280;54866;53.458;14.540;2023-01-31T08:59:15;100472.17;;;3.88;75.91
68077;BME280;54866;53.458;14.540;2023-01-31T09:01:44;100468.34;;;3.72;77.20
68077;BME280;54866;53.458;14.540;2023-01-31T09:04:14;100465.06;;;3.58;78.06
68077;BME280;54866;53.458;14.540;2023-01-31T09:06:44;100463.96;;;3.50;79.12
68077;BME280;54866;53.458;14.540;2023-01-31T09:09:13;100468.73;;;3.41;79.89
68077;BME280;54866;53.458;14.540;2023-01-31T09:11:42;100471.49;;;3.28;80.51
68077;BME280;54866;53.458;14.540;2023-01-31T09:14:12;100466.40;;;3.16;81.19
68077;BME280;54866;53.458;14.540;2023-01-31T09:16:41;100472.16;;;3.05;82.15
68077;BME280;54866;53.458;14.540;2023-01-31T09:19:12;100464.36;;;2.98;82.56
68077;BME280;54866;53.458;14.540;2023-01-31T09:21:42;100459.20;;;2.93;83.68
68077;BME280;54866;53.458;14.540;2023-01-31T09:24:11;100459.89;;;2.90;84.07
68077;BME280;54866;53.458;14.540;2023-01-31T09:26:40;100464.02;;;2.87;84.59
68077;BME280;54866;53.458;14.540;2023-01-31T09:29:09;100460.52;;;2.84;84.86
68077;BME280;54866;53.458;14.540;2023-01-31T09:31:39;100461.99;;;2.83;85.09
68077;BME280;54866;53.458;14.540;2023-01-31T09:34:08;100467.90;;;2.80;85.51
68077;BME280;54866;53.458;14.540;2023-01-31T09:36:38;100461.67;;;2.75;85.74
68077;BME280;54866;53.458;14.540;2023-01-31T09:39:08;100462.20;;;2.71;86.40
68077;BME280;54866;53.458;14.540;2023-01-31T09:41:40;100459.71;;;2.69;86.70
68077;BME280;54866;53.458;14.540;2023-01-31T09:44:14;100457.70;;;2.71;87.36
68077;BME280;54866;53.458;14.540;2023-01-31T09:46:51;100456.71;;;2.69;87.65
68077;BME280;54866;53.458;14.540;2023-01-31T09:49:24;100449.18;;;2.67;88.45
68077;BME280;54866;53.458;14.540;2023-01-31T09:51:59;100452.09;;;2.71;88.52
68077;BME280;54866;53.458;14.540;2023-01-31T09:54:32;100437.73;;;2.74;88.80
68077;BME280;54866;53.458;14.540;2023-01-31T09:57:09;100436.49;;;2.78;89.00
68077;BME280;54866;53.458;14.540;2023-01-31T09:59:48;100430.46;;;2.80;89.79
68077;BME280;54866;53.458;14.540;2023-01-31T10:02:45;100428.21;;;2.87;89.78
68077;BME280;54866;53.458;14.540;2023-01-31T10:05:22;100427.75;;;2.92;90.05
68077;BME280;54866;53.458;14.540;2023-01-31T10:08:03;100422.77;;;2.95;90.40
68077;BME280;54866;53.458;14.540;2023-01-31T10:10:38;100430.69;;;2.99;90.59
68077;BME280;54866;53.458;14.540;2023-01-31T10:13:17;100424.22;;;2.97;90.46
68077;BME280;54866;53.458;14.540;2023-01-31T10:15:51;100421.99;;;2.96;91.05
68077;BME280;54866;53.458;14.540;2023-01-31T10:18:26;100423.84;;;3.00;91.07
68077;BME280;54866;53.458;14.540;2023-01-31T10:21:01;100426.25;;;3.05;91.43
68077;BME280;54866;53.458;14.540;2023-01-31T10:23:35;100420.59;;;3.06;91.13
68077;BME280;54866;53.458;14.540;2023-01-31T10:26:09;100408.75;;;3.06;91.64
68077;BME280;54866;53.458;14.540;2023-01-31T10:28:47;100407.48;;;3.10;91.76
68077;BME280;54866;53.458;14.540;2023-01-31T10:31:26;100401.34;;;3.12;91.70
68077;BME280;54866;53.458;14.540;2023-01-31T10:33:59;100387.54;;;3.09;92.00
68077;BME280;54866;53.458;14.540;2023-01-31T10:36:35;100393.79;;;3.06;92.35
68077;BME280;54866;53.458;14.540;2023-01-31T10:39:09;100389.23;;;3.00;93.41
68077;BME280;54866;53.458;14.540;2023-01-31T10:41:50;100381.56;;;2.94;94.25
68077;BME280;54866;53.458;14.540;2023-01-31T10:44:35;100391.38;;;2.89;94.83
68077;BME280;54866;53.458;14.540;2023-01-31T10:47:12;100386.30;;;2.83;95.33
68077;BME280;54866;53.458;14.540;2023-01-31T10:49:45;100378.14;;;2.76;95.86
68077;BME280;54866;53.458;14.540;2023-01-31T10:52:35;100376.42;;;2.68;96.99
68077;BME280;54866;53.458;14.540;2023-01-31T10:55:24;100372.31;;;2.60;97.27
68077;BME280;54866;53.458;14.540;2023-01-31T10:57:57;100366.07;;;2.53;98.50
68077;BME280;54866;53.458;14.540;2023-01-31T11:00:30;100362.72;;;2.47;99.16
68077;BME280;54866;53.458;14.540;2023-01-31T11:03:00;100355.89;;;2.41;99.94
68077;BME280;54866;53.458;14.540;2023-01-31T11:05:30;100352.67;;;2.36;100.00
68077;BME280;54866;53.458;14.540;2023-01-31T11:08:01;100343.13;;;2.32;100.00
68077;BME280;54866;53.458;14.540;2023-01-31T11:10:34;100336.93;;;2.28;100.00
68077;BME280;54866;53.458;14.540;2023-01-31T11:13:19;100334.27;;;2.25;100.00
68077;BME280;54866;53.458;14.540;2023-01-31T11:15:51;100330.02;;;2.23;100.00
68077;BME280;54866;53.458;14.540;2023-01-31T11:18:29;100328.35;;;2.21;100.00
68077;BME280;54866;53.458;14.540;2023-01-31T11:21:01;100319.19;;;2.21;100.00
68077;BME280;54866;53.458;14.540;2023-01-31T11:23:33;100317.31;;;2.20;100.00
68077;BME280;54866;53.458;14.540;2023-01-31T11:26:04;100303.98;;;2.19;100.00
68077;BME280;54866;53.458;14.540;2023-01-31T11:28:37;100298.77;;;2.19;100.00
68077;BME280;54866;53.458;14.540;2023-01-31T11:31:15;100294.31;;;2.18;100.00
68077;BME280;54866;53.458;14.540;2023-01-31T11:33:56;100284.68;;;2.19;100.00
68077;BME280;54866;53.458;14.540;2023-01-31T11:36:32;100283.89;;;2.25;100.00
68077;BME280;54866;53.458;14.540;2023-01-31T11:39:21;100277.86;;;2.30;100.00
68077;BME280;54866;53.458;14.540;2023-01-31T11:41:53;100273.30;;;2.34;100.00
68077;BME280;54866;53.458;14.540;2023-01-31T11:44:23;100269.02;;;2.36;100.00
68077;BME280;54866;53.458;14.540;2023-01-31T11:46:55;100263.41;;;2.37;100.00
68077;BME280;54866;53.458;14.540;2023-01-31T11:49:29;100260.70;;;2.39;100.00
68077;BME280;54866;53.458;14.540;2023-01-31T11:52:02;100256.73;;;2.42;100.00
68077;BME280;54866;53.458;14.540;2023-01-31T11:54:42;100253.03;;;2.43;100.00
68077;BME280;54866;53.458;14.540;2023-01-31T11:57:22;100251.25;;;2.44;100.00
68077;BME280;54866;53.458;14.540;2023-01-31T11:59:54;100246.56;;;2.44;100.00
68077;BME280;54866;53.458;14.540;2023-01-31T12:02:34;100242.64;;;2.46;100.00
68077;BME280;54866;53.458;14.540;2023-01-31T12:05:09;100229.61;;;2.46;100.00
68077;BME280;54866;53.458;14.540;2023-01-31T12:07:45;100219.92;;;2.45;100.00
68077;BME280;54866;53.458;14.540;2023-01-31T12:10:31;100208.52;;;2.43;100.00
68077;BME280;54866;53.458;14.540;2023-01-31T12:13:07;100198.41;;;2.40;100.00
68077;BME280;54866;53.458;14.540;2023-01-31T12:15:47;100193.00;;;2.37;100.00
68077;BME280;54866;53.458;14.540;2023-01-31T12:18:23;100182.49;;;2.36;100.00
68077;BME280;54866;53.458;14.540;2023-01-31T12:21:05;100172.06;;;2.35;100.00
68077;BME280;54866;53.458;14.540;2023-01-31T12:23:41;100161.55;;;2.37;100.00
68077;BME280;54866;53.458;14.540;2023-01-31T12:26:16;100153.57;;;2.37;100.00
68077;BME280;54866;53.458;14.540;2023-01-31T12:28:54;100149.36;;;2.37;100.00
68077;BME280;54866;53.458;14.540;2023-01-31T12:31:39;100140.65;;;2.34;100.00
68077;BME280;54866;53.458;14.540;2023-01-31T12:34:23;100137.63;;;2.36;100.00
68077;BME280;54866;53.458;14.540;2023-01-31T12:37:12;100134.89;;;2.35;100.00
68077;BME280;54866;53.458;14.540;2023-01-31T12:39:57;100131.13;;;2.34;100.00
68077;BME280;54866;53.458;14.540;2023-01-31T12:42:49;100124.76;;;2.33;100.00
68077;BME280;54866;53.458;14.540;2023-01-31T12:45:36;100119.39;;;2.32;100.00
68077;BME280;54866;53.458;14.540;2023-01-31T12:48:40;100111.20;;;2.36;100.00
68077;BME280;54866;53.458;14.540;2023-01-31T12:51:22;100085.70;;;2.38;100.00
68077;BME280;54866;53.458;14.540;2023-01-31T12:54:07;100074.73;;;2.45;100.00
68077;BME280;54866;53.458;14.540;2023-01-31T12:56:48;100069.92;;;2.50;100.00
68077;BME280;54866;53.458;14.540;2023-01-31T12:59:29;100059.98;;;2.53;100.00
68077;BME280;54866;53.458;14.540;2023-01-31T13:02:15;100047.01;;;2.55;100.00
68077;BME280;54866;53.458;14.540;2023-01-31T13:04:50;100048.30;;;2.57;100.00
68077;BME280;54866;53.458;14.540;2023-01-31T13:07:29;100055.66;;;2.56;100.00
68077;BME280;54866;53.458;14.540;2023-01-31T13:10:03;100054.61;;;2.54;100.00
68077;BME280;54866;53.458;14.540;2023-01-31T13:12:36;100046.65;;;2.50;100.00
68077;BME280;54866;53.458;14.540;2023-01-31T13:15:14;100048.16;;;2.51;100.00
68077;BME280;54866;53.458;14.540;2023-01-31T13:17:45;100036.54;;;2.50;100.00
68077;BME280;54866;53.458;14.540;2023-01-31T13:20:25;100035.43;;;2.51;100.00
68077;BME280;54866;53.458;14.540;2023-01-31T13:22:58;100024.88;;;2.50;100.00